VKG177 LGIR-EKCH
Flight info
| Callsign | VKG177 |
|---|---|
| Flight time | 3h 25m |
| Altitude | 34000 |
| Route | EPALO UM749 ATV DCT TALAS DCT LONTA UM749 UDVAR DCT PARAK DCT AMRAX DCT REGLI DCT DENKO L996 GOSOT DCT ROE M743 TIDVU |
| Aircraft | A321/M-SDE2E3FGHIJ1RWXYZ/LB2 |
Departure
| Time | 2026-04-25 17:06 |
|---|---|
| Airport | Heraklion International Nikos Kazantzakis Airport (LGIR) |
Arrival
| Time | 2026-04-25 20:32 |
|---|---|
| Airport | Copenhagen Kastrup Airport (EKCH) |
| Time | Latitude | Longitude | Altitude | Speed | Heading |
|---|---|---|---|---|---|
| 2026-04-25 16:43 | 35.33768 | 25.17421 | 92 ft | 0 kts | 275° |
| 2026-04-25 16:56 | 35.33768 | 25.17415 | 93 ft | 2 kts | 274° |
| 2026-04-25 16:56 | 35.33769 | 25.17403 | 92 ft | 1 kts | 274° |
| 2026-04-25 16:56 | 35.33769 | 25.17396 | 94 ft | 0 kts | 274° |
| 2026-04-25 16:57 | 35.33770 | 25.17387 | 94 ft | 0 kts | 274° |
| 2026-04-25 16:57 | 35.33769 | 25.17392 | 94 ft | 2 kts | 274° |
| 2026-04-25 16:57 | 35.33769 | 25.17391 | 94 ft | 0 kts | 274° |
| 2026-04-25 16:59 | 35.33771 | 25.17385 | 94 ft | 4 kts | 285° |
| 2026-04-25 16:59 | 35.33825 | 25.17365 | 91 ft | 10 kts | 0° |
| 2026-04-25 16:59 | 35.33890 | 25.17376 | 91 ft | 9 kts | 9° |
| 2026-04-25 17:00 | 35.33913 | 25.17429 | 93 ft | 8 kts | 82° |
| 2026-04-25 17:00 | 35.33910 | 25.17500 | 94 ft | 9 kts | 92° |
| 2026-04-25 17:00 | 35.33905 | 25.17595 | 92 ft | 14 kts | 95° |
| 2026-04-25 17:00 | 35.33898 | 25.17728 | 92 ft | 17 kts | 94° |
| 2026-04-25 17:01 | 35.33888 | 25.17850 | 92 ft | 9 kts | 95° |
| 2026-04-25 17:01 | 35.33883 | 25.17923 | 95 ft | 8 kts | 94° |
| 2026-04-25 17:01 | 35.33879 | 25.17990 | 93 ft | 9 kts | 95° |
| 2026-04-25 17:01 | 35.33870 | 25.18109 | 94 ft | 19 kts | 95° |
| 2026-04-25 17:02 | 35.33856 | 25.18295 | 92 ft | 23 kts | 94° |
| 2026-04-25 17:02 | 35.33846 | 25.18483 | 91 ft | 22 kts | 94° |
| 2026-04-25 17:02 | 35.33834 | 25.18652 | 90 ft | 19 kts | 95° |
| 2026-04-25 17:02 | 35.33829 | 25.18736 | 90 ft | 8 kts | 94° |
| 2026-04-25 17:03 | 35.33828 | 25.18752 | 90 ft | 0 kts | 94° |
| 2026-04-25 17:03 | 35.33826 | 25.18767 | 90 ft | 4 kts | 100° |
| 2026-04-25 17:03 | 35.33821 | 25.18821 | 91 ft | 9 kts | 94° |
| 2026-04-25 17:03 | 35.33819 | 25.18862 | 90 ft | 0 kts | 94° |
| 2026-04-25 17:04 | 35.33819 | 25.18865 | 90 ft | 2 kts | 94° |
| 2026-04-25 17:04 | 35.33832 | 25.18946 | 90 ft | 18 kts | 66° |
| 2026-04-25 17:05 | 35.33901 | 25.19020 | 91 ft | 10 kts | 327° |
| 2026-04-25 17:05 | 35.33908 | 25.18990 | 87 ft | 0 kts | 275° |
| 2026-04-25 17:05 | 35.33909 | 25.18966 | 91 ft | 15 kts | 275° |
| 2026-04-25 17:06 | 35.33945 | 25.18469 | 92 ft | 98 kts | 274° |
| 2026-04-25 17:06 | 35.34026 | 25.17355 | 92 ft | 161 kts | 276° |
| 2026-04-25 17:06 | 35.34142 | 25.15869 | 546 ft | 181 kts | 275° |
| 2026-04-25 17:06 | 35.34255 | 25.14286 | 1261 ft | 194 kts | 284° |
| 2026-04-25 17:07 | 35.34921 | 25.12853 | 1696 ft | 201 kts | 331° |
| 2026-04-25 17:07 | 35.36244 | 25.12275 | 2174 ft | 211 kts | 356° |
| 2026-04-25 17:07 | 35.37760 | 25.12056 | 2780 ft | 225 kts | 0° |
| 2026-04-25 17:07 | 35.39343 | 25.11863 | 3658 ft | 232 kts | 1° |
| 2026-04-25 17:08 | 35.40965 | 25.11673 | 4563 ft | 237 kts | 1° |
| 2026-04-25 17:08 | 35.42618 | 25.11453 | 5440 ft | 242 kts | 355° |
| 2026-04-25 17:08 | 35.44279 | 25.10986 | 6317 ft | 248 kts | 350° |
| 2026-04-25 17:08 | 35.45945 | 25.10382 | 7130 ft | 252 kts | 347° |
| 2026-04-25 17:09 | 35.47631 | 25.09729 | 7902 ft | 257 kts | 347° |
| 2026-04-25 17:09 | 35.49352 | 25.09065 | 8657 ft | 262 kts | 348° |
| 2026-04-25 17:09 | 35.51103 | 25.08403 | 9444 ft | 265 kts | 348° |
| 2026-04-25 17:09 | 35.52877 | 25.07744 | 10165 ft | 268 kts | 349° |
| 2026-04-25 17:10 | 35.54682 | 25.07085 | 10836 ft | 272 kts | 349° |
| 2026-04-25 17:10 | 35.56508 | 25.06424 | 11484 ft | 276 kts | 348° |
| 2026-04-25 17:10 | 35.58365 | 25.05758 | 12139 ft | 280 kts | 349° |
| 2026-04-25 17:10 | 35.60247 | 25.05086 | 12772 ft | 284 kts | 348° |
| 2026-04-25 17:11 | 35.62156 | 25.04403 | 13412 ft | 288 kts | 349° |
| 2026-04-25 17:11 | 35.64094 | 25.03710 | 13991 ft | 292 kts | 349° |
| 2026-04-25 17:11 | 35.66053 | 25.03010 | 14556 ft | 294 kts | 349° |
| 2026-04-25 17:11 | 35.68027 | 25.02304 | 15118 ft | 297 kts | 348° |
| 2026-04-25 17:12 | 35.70094 | 25.01571 | 15291 ft | 320 kts | 349° |
| 2026-04-25 17:12 | 35.72310 | 25.00762 | 15441 ft | 344 kts | 346° |
| 2026-04-25 17:12 | 35.74636 | 24.99770 | 15689 ft | 361 kts | 343° |
| 2026-04-25 17:12 | 35.76999 | 24.98655 | 16120 ft | 366 kts | 342° |
| 2026-04-25 17:13 | 35.79379 | 24.97483 | 16630 ft | 369 kts | 342° |
| 2026-04-25 17:13 | 35.80149 | 24.97101 | 16805 ft | 370 kts | 342° |
| 2026-04-25 17:13 | 35.84186 | 24.95120 | 17730 ft | 375 kts | 342° |
| 2026-04-25 17:13 | 35.86626 | 24.93946 | 18266 ft | 377 kts | 343° |
| 2026-04-25 17:14 | 35.89083 | 24.92779 | 18712 ft | 380 kts | 343° |
| 2026-04-25 17:14 | 35.91554 | 24.91613 | 19149 ft | 382 kts | 343° |
| 2026-04-25 17:14 | 35.94040 | 24.90443 | 19602 ft | 384 kts | 343° |
| 2026-04-25 17:14 | 35.96515 | 24.89279 | 20003 ft | 386 kts | 343° |
| 2026-04-25 17:15 | 35.99031 | 24.88090 | 20412 ft | 388 kts | 343° |
| 2026-04-25 17:15 | 36.01560 | 24.86896 | 20832 ft | 390 kts | 343° |
| 2026-04-25 17:15 | 36.04107 | 24.85694 | 21260 ft | 392 kts | 343° |
| 2026-04-25 17:15 | 36.06659 | 24.84486 | 21677 ft | 394 kts | 343° |
| 2026-04-25 17:16 | 36.09226 | 24.83268 | 22078 ft | 396 kts | 343° |
| 2026-04-25 17:16 | 36.11817 | 24.82038 | 22492 ft | 398 kts | 343° |
| 2026-04-25 17:16 | 36.14408 | 24.80805 | 22888 ft | 400 kts | 343° |
| 2026-04-25 17:16 | 36.17008 | 24.79567 | 23285 ft | 402 kts | 344° |
| 2026-04-25 17:17 | 36.19628 | 24.78322 | 23639 ft | 404 kts | 344° |
| 2026-04-25 17:17 | 36.22255 | 24.77075 | 23933 ft | 406 kts | 344° |
| 2026-04-25 17:17 | 36.24896 | 24.75821 | 24266 ft | 407 kts | 344° |
| 2026-04-25 17:17 | 36.27545 | 24.74563 | 24593 ft | 408 kts | 344° |
| 2026-04-25 17:18 | 36.30208 | 24.73300 | 24897 ft | 410 kts | 344° |
| 2026-04-25 17:18 | 36.32879 | 24.72032 | 25205 ft | 412 kts | 344° |
| 2026-04-25 17:18 | 36.35525 | 24.70771 | 25497 ft | 414 kts | 343° |
| 2026-04-25 17:18 | 36.38217 | 24.69485 | 25794 ft | 416 kts | 343° |
| 2026-04-25 17:19 | 36.40925 | 24.68190 | 26085 ft | 418 kts | 343° |
| 2026-04-25 17:19 | 36.43645 | 24.66889 | 26386 ft | 420 kts | 343° |
| 2026-04-25 17:19 | 36.46373 | 24.65585 | 26669 ft | 422 kts | 343° |
| 2026-04-25 17:19 | 36.49120 | 24.64269 | 26938 ft | 423 kts | 343° |
| 2026-04-25 17:20 | 36.51872 | 24.62949 | 27238 ft | 425 kts | 343° |
| 2026-04-25 17:20 | 36.54634 | 24.61624 | 27506 ft | 426 kts | 343° |
| 2026-04-25 17:20 | 36.57411 | 24.60291 | 27797 ft | 428 kts | 343° |
| 2026-04-25 17:20 | 36.60199 | 24.58953 | 28077 ft | 430 kts | 343° |
| 2026-04-25 17:21 | 36.62989 | 24.57613 | 28351 ft | 431 kts | 343° |
| 2026-04-25 17:21 | 36.65797 | 24.56265 | 28619 ft | 433 kts | 343° |
| 2026-04-25 17:21 | 36.68615 | 24.54910 | 28886 ft | 435 kts | 343° |
| 2026-04-25 17:21 | 36.71442 | 24.53549 | 29147 ft | 436 kts | 342° |
| 2026-04-25 17:22 | 36.74276 | 24.52180 | 29382 ft | 439 kts | 341° |
| 2026-04-25 17:22 | 36.75226 | 24.51666 | 29461 ft | 441 kts | 338° |
| 2026-04-25 17:22 | 36.79816 | 24.48837 | 29867 ft | 444 kts | 337° |
| 2026-04-25 17:22 | 36.82590 | 24.47118 | 30090 ft | 445 kts | 337° |
| 2026-04-25 17:23 | 36.85372 | 24.45396 | 30287 ft | 447 kts | 336° |
| 2026-04-25 17:23 | 36.88161 | 24.43672 | 30494 ft | 448 kts | 336° |
| 2026-04-25 17:23 | 36.90961 | 24.41943 | 30703 ft | 449 kts | 336° |
| 2026-04-25 17:23 | 36.93764 | 24.40210 | 30913 ft | 450 kts | 336° |
| 2026-04-25 17:24 | 36.96572 | 24.38471 | 31111 ft | 452 kts | 336° |
| 2026-04-25 17:24 | 36.99386 | 24.36723 | 31410 ft | 450 kts | 336° |
| 2026-04-25 17:24 | 37.02149 | 24.35005 | 31728 ft | 449 kts | 335° |
| 2026-04-25 17:24 | 37.04942 | 24.33269 | 32029 ft | 448 kts | 336° |
| 2026-04-25 17:25 | 37.07735 | 24.31536 | 32329 ft | 447 kts | 336° |
| 2026-04-25 17:25 | 37.10517 | 24.29810 | 32624 ft | 446 kts | 336° |
| 2026-04-25 17:25 | 37.13297 | 24.28080 | 32919 ft | 445 kts | 335° |
| 2026-04-25 17:25 | 37.16067 | 24.26353 | 33207 ft | 444 kts | 335° |
| 2026-04-25 17:26 | 37.18830 | 24.24629 | 33499 ft | 443 kts | 335° |
| 2026-04-25 17:26 | 37.21589 | 24.22904 | 33774 ft | 442 kts | 335° |
| 2026-04-25 17:26 | 37.24337 | 24.21183 | 33959 ft | 443 kts | 335° |
| 2026-04-25 17:26 | 37.27106 | 24.19449 | 33999 ft | 447 kts | 335° |
| 2026-04-25 17:27 | 37.32729 | 24.15929 | 34000 ft | 456 kts | 335° |
| 2026-04-25 17:27 | 37.36531 | 24.13548 | 34000 ft | 457 kts | 335° |
| 2026-04-25 17:28 | 37.44118 | 24.08793 | 34007 ft | 457 kts | 335° |
| 2026-04-25 17:28 | 37.49806 | 24.05209 | 34001 ft | 458 kts | 335° |
| 2026-04-25 17:29 | 37.55511 | 24.01613 | 34007 ft | 459 kts | 335° |
| 2026-04-25 17:29 | 37.61221 | 23.98009 | 34019 ft | 459 kts | 335° |
| 2026-04-25 17:30 | 37.66901 | 23.94408 | 34028 ft | 459 kts | 335° |
| 2026-04-25 17:30 | 37.72607 | 23.90784 | 34035 ft | 459 kts | 335° |
| 2026-04-25 17:31 | 37.78315 | 23.87163 | 34014 ft | 459 kts | 335° |
| 2026-04-25 17:31 | 37.84018 | 23.83541 | 34013 ft | 458 kts | 335° |
| 2026-04-25 17:32 | 37.89713 | 23.79924 | 34010 ft | 458 kts | 336° |
| 2026-04-25 17:32 | 37.94510 | 23.77098 | 34012 ft | 457 kts | 338° |
| 2026-04-25 17:33 | 38.00341 | 23.73902 | 33993 ft | 457 kts | 341° |
| 2026-04-25 17:33 | 38.06171 | 23.70702 | 34003 ft | 457 kts | 340° |
| 2026-04-25 17:34 | 38.11972 | 23.67431 | 34008 ft | 457 kts | 340° |
| 2026-04-25 17:34 | 38.17765 | 23.64121 | 34011 ft | 457 kts | 340° |
| 2026-04-25 17:35 | 38.23561 | 23.60810 | 34028 ft | 457 kts | 340° |
| 2026-04-25 17:35 | 38.29366 | 23.57500 | 34032 ft | 456 kts | 340° |
| 2026-04-25 17:36 | 38.35159 | 23.54195 | 34040 ft | 456 kts | 340° |
| 2026-04-25 17:36 | 38.40917 | 23.50906 | 34047 ft | 456 kts | 340° |
| 2026-04-25 17:37 | 38.46708 | 23.47593 | 34049 ft | 456 kts | 340° |
| 2026-04-25 17:37 | 38.52487 | 23.44275 | 34044 ft | 456 kts | 340° |
| 2026-04-25 17:38 | 38.57291 | 23.41512 | 34037 ft | 455 kts | 340° |
| 2026-04-25 17:38 | 38.64044 | 23.37628 | 34051 ft | 455 kts | 340° |
| 2026-04-25 17:39 | 38.69820 | 23.34304 | 34049 ft | 455 kts | 340° |
| 2026-04-25 17:39 | 38.75547 | 23.30992 | 34035 ft | 454 kts | 340° |
| 2026-04-25 17:40 | 38.81311 | 23.27650 | 34052 ft | 454 kts | 340° |
| 2026-04-25 17:40 | 38.87066 | 23.24318 | 34048 ft | 454 kts | 340° |
| 2026-04-25 17:41 | 38.92812 | 23.20978 | 34047 ft | 454 kts | 340° |
| 2026-04-25 17:41 | 38.98560 | 23.17630 | 34045 ft | 453 kts | 340° |
| 2026-04-25 17:42 | 39.04301 | 23.14278 | 34040 ft | 453 kts | 340° |
| 2026-04-25 17:42 | 39.10035 | 23.10938 | 34035 ft | 452 kts | 340° |
| 2026-04-25 17:43 | 39.15766 | 23.07591 | 34026 ft | 452 kts | 340° |
| 2026-04-25 17:43 | 39.21481 | 23.04231 | 34013 ft | 451 kts | 340° |
| 2026-04-25 17:44 | 39.27154 | 23.00888 | 34018 ft | 451 kts | 340° |
| 2026-04-25 17:44 | 39.32855 | 22.97540 | 34023 ft | 450 kts | 340° |
| 2026-04-25 17:45 | 39.37630 | 22.94735 | 34045 ft | 450 kts | 340° |
| 2026-04-25 17:45 | 39.44242 | 22.90839 | 34043 ft | 449 kts | 340° |
| 2026-04-25 17:46 | 39.49923 | 22.87481 | 34037 ft | 449 kts | 340° |
| 2026-04-25 17:46 | 39.55604 | 22.84111 | 34035 ft | 449 kts | 340° |
| 2026-04-25 17:47 | 39.61274 | 22.80744 | 34036 ft | 449 kts | 340° |
| 2026-04-25 17:47 | 39.66947 | 22.77366 | 34021 ft | 448 kts | 340° |
| 2026-04-25 17:48 | 39.75448 | 22.72300 | 34020 ft | 448 kts | 339° |
| 2026-04-25 17:49 | 39.81108 | 22.68921 | 34022 ft | 448 kts | 339° |
| 2026-04-25 17:49 | 39.86763 | 22.65536 | 34020 ft | 448 kts | 339° |
| 2026-04-25 17:50 | 39.92429 | 22.62139 | 34027 ft | 447 kts | 339° |
| 2026-04-25 17:50 | 39.98087 | 22.58745 | 34008 ft | 447 kts | 339° |
| 2026-04-25 17:51 | 40.03698 | 22.55364 | 34014 ft | 447 kts | 339° |
| 2026-04-25 17:51 | 40.09346 | 22.51954 | 34016 ft | 447 kts | 339° |
| 2026-04-25 17:52 | 40.14998 | 22.48545 | 34006 ft | 447 kts | 339° |
| 2026-04-25 17:52 | 40.20644 | 22.45128 | 33994 ft | 447 kts | 339° |
| 2026-04-25 17:53 | 40.26287 | 22.41703 | 33999 ft | 447 kts | 339° |
| 2026-04-25 17:53 | 40.31924 | 22.38284 | 33993 ft | 447 kts | 339° |
| 2026-04-25 17:54 | 40.37562 | 22.34864 | 34010 ft | 447 kts | 339° |
| 2026-04-25 17:54 | 40.43202 | 22.31429 | 34009 ft | 446 kts | 339° |
| 2026-04-25 17:55 | 40.48831 | 22.27990 | 34013 ft | 446 kts | 338° |
| 2026-04-25 17:55 | 40.54454 | 22.24545 | 34009 ft | 446 kts | 338° |
| 2026-04-25 17:56 | 40.60079 | 22.21100 | 34010 ft | 446 kts | 339° |
| 2026-04-25 17:56 | 40.65699 | 22.17657 | 34012 ft | 446 kts | 338° |
| 2026-04-25 17:57 | 40.71320 | 22.14199 | 34015 ft | 446 kts | 338° |
| 2026-04-25 17:57 | 40.76943 | 22.10728 | 34004 ft | 446 kts | 338° |
| 2026-04-25 17:58 | 40.82562 | 22.07260 | 34005 ft | 446 kts | 338° |
| 2026-04-25 17:58 | 40.88147 | 22.03802 | 34015 ft | 446 kts | 338° |
| 2026-04-25 17:59 | 40.93765 | 22.00315 | 34021 ft | 446 kts | 338° |
| 2026-04-25 17:59 | 40.99374 | 21.96824 | 34023 ft | 445 kts | 338° |
| 2026-04-25 18:00 | 41.04984 | 21.93330 | 34021 ft | 445 kts | 338° |
| 2026-04-25 18:00 | 41.10697 | 21.90224 | 34017 ft | 443 kts | 343° |
| 2026-04-25 18:01 | 41.16497 | 21.87486 | 34027 ft | 442 kts | 343° |
| 2026-04-25 18:01 | 41.22306 | 21.84750 | 34032 ft | 442 kts | 343° |
| 2026-04-25 18:02 | 41.28101 | 21.82005 | 34031 ft | 442 kts | 343° |
| 2026-04-25 18:02 | 41.33858 | 21.79272 | 34024 ft | 442 kts | 342° |
| 2026-04-25 18:03 | 41.39681 | 21.76498 | 34015 ft | 442 kts | 342° |
| 2026-04-25 18:03 | 41.45435 | 21.73761 | 34012 ft | 442 kts | 342° |
| 2026-04-25 18:04 | 41.51228 | 21.70998 | 34012 ft | 442 kts | 342° |
| 2026-04-25 18:04 | 41.57023 | 21.68228 | 34013 ft | 442 kts | 342° |
| 2026-04-25 18:05 | 41.62816 | 21.65450 | 34012 ft | 442 kts | 342° |
| 2026-04-25 18:05 | 41.68606 | 21.62665 | 34007 ft | 442 kts | 342° |
| 2026-04-25 18:06 | 41.74399 | 21.59873 | 34010 ft | 443 kts | 342° |
| 2026-04-25 18:06 | 41.80194 | 21.57084 | 34005 ft | 443 kts | 341° |
| 2026-04-25 18:07 | 41.85990 | 21.54278 | 34016 ft | 443 kts | 341° |
| 2026-04-25 18:07 | 41.91778 | 21.51469 | 34017 ft | 442 kts | 341° |
| 2026-04-25 18:08 | 41.97567 | 21.48667 | 34018 ft | 442 kts | 341° |
| 2026-04-25 18:08 | 42.03359 | 21.45868 | 34018 ft | 442 kts | 341° |
| 2026-04-25 18:09 | 42.09142 | 21.43056 | 34016 ft | 442 kts | 341° |
| 2026-04-25 18:09 | 42.14927 | 21.40231 | 34024 ft | 442 kts | 341° |
| 2026-04-25 18:10 | 42.20776 | 21.37713 | 34032 ft | 441 kts | 345° |
| 2026-04-25 18:10 | 42.26721 | 21.35632 | 34037 ft | 441 kts | 346° |
| 2026-04-25 18:11 | 42.32630 | 21.33594 | 34043 ft | 441 kts | 346° |
| 2026-04-25 18:11 | 42.38547 | 21.31435 | 34041 ft | 441 kts | 345° |
| 2026-04-25 18:12 | 42.44461 | 21.29220 | 34045 ft | 441 kts | 345° |
| 2026-04-25 18:12 | 42.50373 | 21.27015 | 34049 ft | 441 kts | 345° |
| 2026-04-25 18:13 | 42.56284 | 21.24816 | 34045 ft | 440 kts | 345° |
| 2026-04-25 18:13 | 42.62194 | 21.22616 | 34051 ft | 440 kts | 345° |
| 2026-04-25 18:14 | 42.71044 | 21.19328 | 34055 ft | 439 kts | 344° |
| 2026-04-25 18:14 | 42.76939 | 21.17117 | 34053 ft | 439 kts | 344° |
| 2026-04-25 18:15 | 42.82821 | 21.14904 | 34048 ft | 438 kts | 344° |
| 2026-04-25 18:15 | 42.88696 | 21.12699 | 34040 ft | 438 kts | 344° |
| 2026-04-25 18:16 | 42.94577 | 21.10489 | 34035 ft | 438 kts | 344° |
| 2026-04-25 18:17 | 43.03354 | 21.07177 | 34033 ft | 438 kts | 344° |
| 2026-04-25 18:17 | 43.09230 | 21.04962 | 34029 ft | 438 kts | 344° |
| 2026-04-25 18:18 | 43.15134 | 21.02850 | 34024 ft | 438 kts | 346° |
| 2026-04-25 18:18 | 43.21105 | 21.01124 | 34020 ft | 439 kts | 348° |
| 2026-04-25 18:19 | 43.27097 | 20.99480 | 34034 ft | 439 kts | 347° |
| 2026-04-25 18:19 | 43.33070 | 20.97748 | 34027 ft | 439 kts | 346° |
| 2026-04-25 18:20 | 43.39030 | 20.95957 | 34025 ft | 439 kts | 346° |
| 2026-04-25 18:20 | 43.44996 | 20.94158 | 34033 ft | 439 kts | 346° |
| 2026-04-25 18:21 | 43.50967 | 20.92378 | 34028 ft | 439 kts | 346° |
| 2026-04-25 18:21 | 43.56935 | 20.90607 | 34029 ft | 439 kts | 346° |
| 2026-04-25 18:22 | 43.61902 | 20.89126 | 34024 ft | 439 kts | 346° |
| 2026-04-25 18:22 | 43.67868 | 20.87336 | 34028 ft | 439 kts | 345° |
| 2026-04-25 18:23 | 43.73833 | 20.85547 | 34024 ft | 439 kts | 345° |
| 2026-04-25 18:23 | 43.79798 | 20.83746 | 34020 ft | 438 kts | 345° |
| 2026-04-25 18:24 | 43.85762 | 20.81944 | 34024 ft | 438 kts | 345° |
| 2026-04-25 18:24 | 43.91684 | 20.80162 | 34023 ft | 438 kts | 345° |
| 2026-04-25 18:25 | 43.97639 | 20.78358 | 34024 ft | 438 kts | 345° |
| 2026-04-25 18:25 | 44.03589 | 20.76563 | 34022 ft | 438 kts | 345° |
| 2026-04-25 18:26 | 44.09547 | 20.74758 | 34026 ft | 438 kts | 345° |
| 2026-04-25 18:26 | 44.15499 | 20.72938 | 34023 ft | 438 kts | 345° |
| 2026-04-25 18:27 | 44.21451 | 20.71116 | 34016 ft | 438 kts | 345° |
| 2026-04-25 18:27 | 44.27411 | 20.69288 | 34026 ft | 438 kts | 344° |
| 2026-04-25 18:28 | 44.33370 | 20.67452 | 34024 ft | 438 kts | 344° |
| 2026-04-25 18:28 | 44.39327 | 20.65622 | 34019 ft | 438 kts | 344° |
| 2026-04-25 18:29 | 44.48261 | 20.62872 | 34033 ft | 438 kts | 344° |
| 2026-04-25 18:30 | 44.60178 | 20.59191 | 34019 ft | 438 kts | 344° |
| 2026-04-25 18:30 | 44.66133 | 20.57352 | 34015 ft | 438 kts | 344° |
| 2026-04-25 18:31 | 44.72083 | 20.55506 | 34024 ft | 438 kts | 343° |
| 2026-04-25 18:31 | 44.78032 | 20.53647 | 34020 ft | 438 kts | 343° |
| 2026-04-25 18:32 | 44.83941 | 20.51799 | 34011 ft | 438 kts | 343° |
| 2026-04-25 18:32 | 44.89889 | 20.49945 | 34008 ft | 438 kts | 343° |
| 2026-04-25 18:33 | 44.95840 | 20.48084 | 34006 ft | 438 kts | 343° |
| 2026-04-25 18:33 | 45.01788 | 20.46215 | 34009 ft | 438 kts | 343° |
| 2026-04-25 18:34 | 45.07740 | 20.44332 | 34002 ft | 438 kts | 343° |
| 2026-04-25 18:34 | 45.13687 | 20.42460 | 34024 ft | 438 kts | 343° |
| 2026-04-25 18:35 | 45.19634 | 20.40584 | 34008 ft | 438 kts | 343° |
| 2026-04-25 18:35 | 45.25575 | 20.38693 | 34001 ft | 438 kts | 343° |
| 2026-04-25 18:36 | 45.31518 | 20.36802 | 33999 ft | 438 kts | 343° |
| 2026-04-25 18:36 | 45.37465 | 20.34926 | 34013 ft | 437 kts | 343° |
| 2026-04-25 18:37 | 45.43364 | 20.33047 | 34006 ft | 437 kts | 343° |
| 2026-04-25 18:37 | 45.49295 | 20.31152 | 34011 ft | 437 kts | 343° |
| 2026-04-25 18:38 | 45.55228 | 20.29253 | 34007 ft | 437 kts | 343° |
| 2026-04-25 18:38 | 45.61156 | 20.27344 | 34015 ft | 437 kts | 342° |
| 2026-04-25 18:39 | 45.67084 | 20.25431 | 34009 ft | 436 kts | 342° |
| 2026-04-25 18:39 | 45.73002 | 20.23524 | 33998 ft | 436 kts | 342° |
| 2026-04-25 18:40 | 45.78923 | 20.21616 | 34013 ft | 436 kts | 342° |
| 2026-04-25 18:40 | 45.84843 | 20.19705 | 34004 ft | 435 kts | 342° |
| 2026-04-25 18:41 | 45.90715 | 20.17803 | 34002 ft | 435 kts | 342° |
| 2026-04-25 18:41 | 45.96619 | 20.15883 | 33997 ft | 435 kts | 342° |
| 2026-04-25 18:42 | 46.01564 | 20.14272 | 33999 ft | 435 kts | 342° |
| 2026-04-25 18:42 | 46.08424 | 20.12032 | 33993 ft | 435 kts | 342° |
| 2026-04-25 18:43 | 46.14323 | 20.10098 | 33983 ft | 435 kts | 342° |
| 2026-04-25 18:43 | 46.20208 | 20.08112 | 33981 ft | 434 kts | 341° |
| 2026-04-25 18:44 | 46.26052 | 20.05959 | 34001 ft | 433 kts | 340° |
| 2026-04-25 18:44 | 46.31881 | 20.03774 | 33980 ft | 432 kts | 340° |
| 2026-04-25 18:45 | 46.37712 | 20.01620 | 33972 ft | 432 kts | 340° |
| 2026-04-25 18:45 | 46.43396 | 19.98947 | 33975 ft | 428 kts | 335° |
| 2026-04-25 18:46 | 46.49002 | 19.96033 | 33978 ft | 428 kts | 335° |
| 2026-04-25 18:46 | 46.54600 | 19.93086 | 33973 ft | 427 kts | 335° |
| 2026-04-25 18:47 | 46.60192 | 19.90167 | 33971 ft | 427 kts | 335° |
| 2026-04-25 18:47 | 46.65791 | 19.87268 | 33967 ft | 427 kts | 335° |
| 2026-04-25 18:48 | 46.71386 | 19.84366 | 33996 ft | 427 kts | 335° |
| 2026-04-25 18:48 | 46.76946 | 19.81474 | 33984 ft | 427 kts | 335° |
| 2026-04-25 18:49 | 46.82543 | 19.78563 | 33974 ft | 427 kts | 335° |
| 2026-04-25 18:49 | 46.88133 | 19.75646 | 33969 ft | 427 kts | 335° |
| 2026-04-25 18:50 | 46.93715 | 19.72707 | 33986 ft | 426 kts | 334° |
| 2026-04-25 18:50 | 46.99299 | 19.69760 | 33981 ft | 426 kts | 334° |
| 2026-04-25 18:51 | 47.03029 | 19.67794 | 33951 ft | 426 kts | 334° |
| 2026-04-25 18:51 | 47.10460 | 19.63886 | 33941 ft | 426 kts | 334° |
| 2026-04-25 18:52 | 47.16043 | 19.60939 | 33935 ft | 427 kts | 334° |
| 2026-04-25 18:52 | 47.21629 | 19.57980 | 33931 ft | 427 kts | 334° |
| 2026-04-25 18:53 | 47.27222 | 19.55010 | 33937 ft | 427 kts | 334° |
| 2026-04-25 18:53 | 47.32813 | 19.52031 | 33937 ft | 427 kts | 334° |
| 2026-04-25 18:54 | 47.41192 | 19.47549 | 33960 ft | 427 kts | 334° |
| 2026-04-25 18:55 | 47.46786 | 19.44558 | 33960 ft | 427 kts | 334° |
| 2026-04-25 18:55 | 47.52339 | 19.41586 | 33958 ft | 426 kts | 334° |
| 2026-04-25 18:56 | 47.57909 | 19.38586 | 33956 ft | 426 kts | 334° |
| 2026-04-25 18:56 | 47.63481 | 19.35581 | 33953 ft | 426 kts | 334° |
| 2026-04-25 18:57 | 47.69049 | 19.32573 | 33977 ft | 426 kts | 334° |
| 2026-04-25 18:57 | 47.74611 | 19.29560 | 33968 ft | 425 kts | 334° |
| 2026-04-25 18:58 | 47.80173 | 19.26542 | 33953 ft | 426 kts | 333° |
| 2026-04-25 18:58 | 47.88526 | 19.22007 | 33949 ft | 426 kts | 333° |
| 2026-04-25 18:59 | 47.99599 | 19.15946 | 33972 ft | 425 kts | 333° |
| 2026-04-25 19:00 | 48.07915 | 19.11382 | 33965 ft | 424 kts | 333° |
| 2026-04-25 19:01 | 48.16220 | 19.06812 | 33996 ft | 424 kts | 333° |
| 2026-04-25 19:01 | 48.21766 | 19.03759 | 33970 ft | 424 kts | 333° |
| 2026-04-25 19:02 | 48.30073 | 18.99162 | 33964 ft | 425 kts | 333° |
| 2026-04-25 19:03 | 48.36515 | 18.95575 | 33960 ft | 424 kts | 333° |
| 2026-04-25 19:03 | 48.43918 | 18.91438 | 33973 ft | 424 kts | 333° |
| 2026-04-25 19:04 | 48.52220 | 18.86796 | 33954 ft | 425 kts | 334° |
| 2026-04-25 19:05 | 48.63325 | 18.80571 | 33950 ft | 426 kts | 334° |
| 2026-04-25 19:06 | 48.68883 | 18.77438 | 33965 ft | 426 kts | 334° |
| 2026-04-25 19:06 | 48.77189 | 18.72748 | 33960 ft | 427 kts | 334° |
| 2026-04-25 19:07 | 48.85537 | 18.68014 | 33962 ft | 427 kts | 335° |
| 2026-04-25 19:08 | 48.93885 | 18.63274 | 33979 ft | 427 kts | 335° |
| 2026-04-25 19:09 | 49.03173 | 18.57978 | 33980 ft | 427 kts | 335° |
| 2026-04-25 19:10 | 49.13341 | 18.52127 | 33975 ft | 426 kts | 335° |
| 2026-04-25 19:10 | 49.17960 | 18.49472 | 34001 ft | 426 kts | 334° |
| 2026-04-25 19:11 | 49.23502 | 18.46279 | 33991 ft | 425 kts | 335° |
| 2026-04-25 19:11 | 49.29030 | 18.43087 | 33972 ft | 425 kts | 334° |
| 2026-04-25 19:12 | 49.34558 | 18.39882 | 33967 ft | 425 kts | 334° |
| 2026-04-25 19:12 | 49.40087 | 18.36679 | 33966 ft | 424 kts | 334° |
| 2026-04-25 19:13 | 49.45610 | 18.33464 | 33976 ft | 424 kts | 334° |
| 2026-04-25 19:13 | 49.51122 | 18.30246 | 33963 ft | 424 kts | 334° |
| 2026-04-25 19:14 | 49.56632 | 18.27024 | 33954 ft | 423 kts | 334° |
| 2026-04-25 19:14 | 49.62130 | 18.23793 | 33958 ft | 423 kts | 334° |
| 2026-04-25 19:15 | 49.67624 | 18.20558 | 33964 ft | 422 kts | 334° |
| 2026-04-25 19:15 | 49.73098 | 18.17333 | 33963 ft | 421 kts | 334° |
| 2026-04-25 19:16 | 49.78531 | 18.14129 | 33963 ft | 420 kts | 334° |
| 2026-04-25 19:16 | 49.83991 | 18.10901 | 33960 ft | 420 kts | 334° |
| 2026-04-25 19:17 | 49.89448 | 18.07652 | 33957 ft | 420 kts | 334° |
| 2026-04-25 19:17 | 49.94905 | 18.04400 | 33983 ft | 420 kts | 334° |
| 2026-04-25 19:18 | 50.00356 | 18.01151 | 33976 ft | 419 kts | 334° |
| 2026-04-25 19:18 | 50.05761 | 17.97770 | 33963 ft | 417 kts | 331° |
| 2026-04-25 19:19 | 50.11009 | 17.93945 | 33953 ft | 416 kts | 329° |
| 2026-04-25 19:19 | 50.16209 | 17.90003 | 33947 ft | 416 kts | 330° |
| 2026-04-25 19:20 | 50.20583 | 17.86753 | 33972 ft | 416 kts | 330° |
| 2026-04-25 19:20 | 50.26671 | 17.82305 | 33953 ft | 415 kts | 330° |
| 2026-04-25 19:21 | 50.31905 | 17.78478 | 33945 ft | 415 kts | 330° |
| 2026-04-25 19:21 | 50.39745 | 17.72700 | 33930 ft | 415 kts | 330° |
| 2026-04-25 19:22 | 50.44963 | 17.68844 | 33929 ft | 415 kts | 330° |
| 2026-04-25 19:23 | 50.52784 | 17.63044 | 33936 ft | 414 kts | 330° |
| 2026-04-25 19:23 | 50.60570 | 17.57258 | 33929 ft | 414 kts | 330° |
| 2026-04-25 19:24 | 50.65803 | 17.53349 | 33924 ft | 414 kts | 330° |
| 2026-04-25 19:25 | 50.76159 | 17.45605 | 33965 ft | 412 kts | 330° |
| 2026-04-25 19:25 | 50.81324 | 17.41723 | 33950 ft | 410 kts | 330° |
| 2026-04-25 19:26 | 50.86467 | 17.37838 | 33944 ft | 409 kts | 330° |
| 2026-04-25 19:26 | 50.91599 | 17.33962 | 33941 ft | 408 kts | 330° |
| 2026-04-25 19:27 | 50.95893 | 17.30706 | 33934 ft | 408 kts | 330° |
| 2026-04-25 19:27 | 51.01843 | 17.26189 | 33949 ft | 407 kts | 330° |
| 2026-04-25 19:28 | 51.06939 | 17.22317 | 33954 ft | 405 kts | 330° |
| 2026-04-25 19:28 | 51.12009 | 17.18455 | 33946 ft | 403 kts | 330° |
| 2026-04-25 19:29 | 51.17053 | 17.14596 | 33941 ft | 402 kts | 330° |
| 2026-04-25 19:29 | 51.22080 | 17.10733 | 33939 ft | 401 kts | 330° |
| 2026-04-25 19:30 | 51.27105 | 17.06875 | 33978 ft | 400 kts | 330° |
| 2026-04-25 19:30 | 51.32091 | 17.03040 | 33935 ft | 396 kts | 329° |
| 2026-04-25 19:31 | 51.37052 | 16.99207 | 33931 ft | 396 kts | 329° |
| 2026-04-25 19:31 | 51.42002 | 16.95371 | 33922 ft | 395 kts | 329° |
| 2026-04-25 19:32 | 51.46944 | 16.91541 | 33928 ft | 394 kts | 329° |
| 2026-04-25 19:32 | 51.51048 | 16.88343 | 33928 ft | 394 kts | 329° |
| 2026-04-25 19:33 | 51.56778 | 16.83878 | 33944 ft | 393 kts | 329° |
| 2026-04-25 19:33 | 51.61683 | 16.80037 | 33940 ft | 391 kts | 329° |
| 2026-04-25 19:34 | 51.66597 | 16.76270 | 33929 ft | 392 kts | 331° |
| 2026-04-25 19:34 | 51.71693 | 16.73033 | 33919 ft | 395 kts | 334° |
| 2026-04-25 19:35 | 51.76854 | 16.70009 | 33922 ft | 395 kts | 334° |
| 2026-04-25 19:35 | 51.82011 | 16.66897 | 33984 ft | 394 kts | 333° |
| 2026-04-25 19:36 | 51.87075 | 16.63753 | 33920 ft | 389 kts | 333° |
| 2026-04-25 19:36 | 51.92116 | 16.60591 | 33915 ft | 388 kts | 333° |
| 2026-04-25 19:37 | 51.97155 | 16.57429 | 33916 ft | 388 kts | 333° |
| 2026-04-25 19:37 | 52.02192 | 16.54277 | 33915 ft | 388 kts | 333° |
| 2026-04-25 19:38 | 52.07190 | 16.51135 | 33911 ft | 388 kts | 333° |
| 2026-04-25 19:38 | 52.12219 | 16.47967 | 33918 ft | 385 kts | 332° |
| 2026-04-25 19:39 | 52.17217 | 16.44819 | 33899 ft | 384 kts | 332° |
| 2026-04-25 19:39 | 52.22198 | 16.41668 | 33915 ft | 383 kts | 332° |
| 2026-04-25 19:40 | 52.27167 | 16.38520 | 33920 ft | 382 kts | 332° |
| 2026-04-25 19:40 | 52.32127 | 16.35356 | 33919 ft | 382 kts | 332° |
| 2026-04-25 19:41 | 52.37049 | 16.32215 | 33920 ft | 382 kts | 332° |
| 2026-04-25 19:41 | 52.40356 | 16.30099 | 33921 ft | 382 kts | 332° |
| 2026-04-25 19:42 | 52.46944 | 16.25873 | 33928 ft | 381 kts | 332° |
| 2026-04-25 19:42 | 52.51889 | 16.22694 | 33930 ft | 381 kts | 332° |
| 2026-04-25 19:43 | 52.56832 | 16.19517 | 33927 ft | 381 kts | 332° |
| 2026-04-25 19:43 | 52.61772 | 16.16349 | 33916 ft | 381 kts | 333° |
| 2026-04-25 19:44 | 52.66697 | 16.13169 | 33939 ft | 377 kts | 332° |
| 2026-04-25 19:44 | 52.71577 | 16.10004 | 33934 ft | 376 kts | 332° |
| 2026-04-25 19:45 | 52.76449 | 16.06840 | 33937 ft | 376 kts | 332° |
| 2026-04-25 19:45 | 52.81322 | 16.03660 | 33937 ft | 376 kts | 332° |
| 2026-04-25 19:46 | 52.86186 | 16.00477 | 33930 ft | 376 kts | 332° |
| 2026-04-25 19:46 | 52.91058 | 15.97287 | 33930 ft | 376 kts | 332° |
| 2026-04-25 19:47 | 52.95916 | 15.94109 | 33934 ft | 374 kts | 332° |
| 2026-04-25 19:47 | 53.00725 | 15.90957 | 33882 ft | 374 kts | 332° |
| 2026-04-25 19:48 | 53.05580 | 15.87754 | 33900 ft | 373 kts | 332° |
| 2026-04-25 19:48 | 53.10394 | 15.84564 | 33917 ft | 372 kts | 332° |
| 2026-04-25 19:49 | 53.13576 | 15.82452 | 33925 ft | 372 kts | 332° |
| 2026-04-25 19:49 | 53.19972 | 15.78198 | 34010 ft | 372 kts | 332° |
| 2026-04-25 19:50 | 53.27179 | 15.73414 | 33919 ft | 371 kts | 331° |
| 2026-04-25 19:51 | 53.31987 | 15.70204 | 33916 ft | 372 kts | 331° |
| 2026-04-25 19:51 | 53.36798 | 15.66978 | 33913 ft | 372 kts | 331° |
| 2026-04-25 19:52 | 53.41605 | 15.63738 | 33916 ft | 373 kts | 331° |
| 2026-04-25 19:52 | 53.46412 | 15.60501 | 33890 ft | 371 kts | 332° |
| 2026-04-25 19:53 | 53.51199 | 15.57270 | 33924 ft | 371 kts | 332° |
| 2026-04-25 19:53 | 53.55995 | 15.54042 | 33905 ft | 371 kts | 332° |
| 2026-04-25 19:54 | 53.60791 | 15.50792 | 33900 ft | 371 kts | 332° |
| 2026-04-25 19:54 | 53.65586 | 15.47535 | 33887 ft | 372 kts | 332° |
| 2026-04-25 19:55 | 53.70385 | 15.44268 | 33887 ft | 372 kts | 332° |
| 2026-04-25 19:55 | 53.74372 | 15.41534 | 33889 ft | 372 kts | 332° |
| 2026-04-25 19:56 | 53.79987 | 15.37684 | 33897 ft | 376 kts | 332° |
| 2026-04-25 19:56 | 53.84849 | 15.34346 | 33890 ft | 378 kts | 332° |
| 2026-04-25 19:57 | 53.88935 | 15.31541 | 33875 ft | 378 kts | 332° |
| 2026-04-25 19:57 | 53.93821 | 15.28184 | 33883 ft | 379 kts | 332° |
| 2026-04-25 19:58 | 53.98702 | 15.24809 | 33873 ft | 379 kts | 332° |
| 2026-04-25 19:58 | 54.03559 | 15.21437 | 33873 ft | 379 kts | 332° |
| 2026-04-25 19:59 | 54.08473 | 15.18011 | 33898 ft | 384 kts | 332° |
| 2026-04-25 19:59 | 54.13435 | 15.14550 | 33871 ft | 386 kts | 332° |
| 2026-04-25 20:00 | 54.18399 | 15.11085 | 33066 ft | 386 kts | 332° |
| 2026-04-25 20:00 | 54.20082 | 15.09906 | 32559 ft | 386 kts | 332° |
| 2026-04-25 20:00 | 54.23376 | 15.07593 | 31620 ft | 386 kts | 332° |
| 2026-04-25 20:00 | 54.25868 | 15.05879 | 30930 ft | 388 kts | 335° |
| 2026-04-25 20:01 | 54.31178 | 15.03781 | 29507 ft | 390 kts | 341° |
| 2026-04-25 20:01 | 54.33829 | 15.02828 | 29038 ft | 388 kts | 341° |
| 2026-04-25 20:01 | 54.36484 | 15.01870 | 28844 ft | 392 kts | 341° |
| 2026-04-25 20:02 | 54.41845 | 14.99926 | 28873 ft | 394 kts | 341° |
| 2026-04-25 20:02 | 54.47199 | 14.97988 | 27962 ft | 392 kts | 341° |
| 2026-04-25 20:03 | 54.49873 | 14.97019 | 27022 ft | 394 kts | 341° |
| 2026-04-25 20:03 | 54.52567 | 14.96042 | 26102 ft | 396 kts | 341° |
| 2026-04-25 20:03 | 54.55251 | 14.95072 | 25675 ft | 387 kts | 341° |
| 2026-04-25 20:03 | 54.57836 | 14.94151 | 25546 ft | 372 kts | 340° |
| 2026-04-25 20:04 | 54.60325 | 14.93263 | 25428 ft | 360 kts | 341° |
| 2026-04-25 20:04 | 54.62761 | 14.92377 | 24915 ft | 356 kts | 341° |
| 2026-04-25 20:04 | 54.65177 | 14.91486 | 24386 ft | 354 kts | 341° |
| 2026-04-25 20:04 | 54.67569 | 14.90601 | 23886 ft | 351 kts | 341° |
| 2026-04-25 20:05 | 54.69950 | 14.89721 | 23386 ft | 348 kts | 341° |
| 2026-04-25 20:05 | 54.72306 | 14.88847 | 22784 ft | 345 kts | 341° |
| 2026-04-25 20:05 | 54.74647 | 14.87977 | 22174 ft | 342 kts | 341° |
| 2026-04-25 20:05 | 54.76965 | 14.87116 | 21584 ft | 340 kts | 341° |
| 2026-04-25 20:06 | 54.79272 | 14.86260 | 20984 ft | 338 kts | 341° |
| 2026-04-25 20:06 | 54.81566 | 14.85409 | 20400 ft | 336 kts | 341° |
| 2026-04-25 20:06 | 54.83849 | 14.84551 | 20007 ft | 336 kts | 341° |
| 2026-04-25 20:06 | 54.86138 | 14.83679 | 19760 ft | 337 kts | 342° |
| 2026-04-25 20:07 | 54.88407 | 14.82812 | 19514 ft | 338 kts | 342° |
| 2026-04-25 20:07 | 54.90698 | 14.81902 | 19271 ft | 336 kts | 339° |
| 2026-04-25 20:07 | 54.92805 | 14.80173 | 18973 ft | 328 kts | 323° |
| 2026-04-25 20:07 | 54.94397 | 14.77462 | 18478 ft | 326 kts | 306° |
| 2026-04-25 20:08 | 54.95606 | 14.74129 | 17894 ft | 326 kts | 303° |
| 2026-04-25 20:08 | 54.96794 | 14.70759 | 17298 ft | 326 kts | 303° |
| 2026-04-25 20:08 | 54.97972 | 14.67398 | 16743 ft | 324 kts | 303° |
| 2026-04-25 20:08 | 54.99142 | 14.64057 | 16231 ft | 323 kts | 303° |
| 2026-04-25 20:09 | 55.00309 | 14.60731 | 15729 ft | 321 kts | 303° |
| 2026-04-25 20:09 | 55.01216 | 14.57172 | 15232 ft | 323 kts | 291° |
| 2026-04-25 20:09 | 55.01904 | 14.53457 | 14762 ft | 322 kts | 291° |
| 2026-04-25 20:09 | 55.02588 | 14.49735 | 14497 ft | 323 kts | 291° |
| 2026-04-25 20:10 | 55.03266 | 14.46019 | 14250 ft | 319 kts | 291° |
| 2026-04-25 20:10 | 55.03927 | 14.42365 | 13992 ft | 312 kts | 291° |
| 2026-04-25 20:10 | 55.04574 | 14.38797 | 13733 ft | 305 kts | 291° |
| 2026-04-25 20:10 | 55.05219 | 14.35261 | 13430 ft | 299 kts | 291° |
| 2026-04-25 20:11 | 55.05841 | 14.31853 | 13171 ft | 298 kts | 292° |
| 2026-04-25 20:11 | 55.06469 | 14.28411 | 12891 ft | 298 kts | 292° |
| 2026-04-25 20:11 | 55.07093 | 14.24972 | 12612 ft | 297 kts | 292° |
| 2026-04-25 20:11 | 55.07715 | 14.21537 | 12344 ft | 297 kts | 292° |
| 2026-04-25 20:12 | 55.08334 | 14.18104 | 12077 ft | 296 kts | 292° |
| 2026-04-25 20:12 | 55.08951 | 14.14677 | 11821 ft | 295 kts | 292° |
| 2026-04-25 20:12 | 55.09564 | 14.11272 | 11460 ft | 294 kts | 292° |
| 2026-04-25 20:12 | 55.09977 | 14.08967 | 11302 ft | 294 kts | 292° |
| 2026-04-25 20:13 | 55.10786 | 14.04439 | 10958 ft | 294 kts | 292° |
| 2026-04-25 20:13 | 55.11395 | 14.01029 | 10695 ft | 294 kts | 292° |
| 2026-04-25 20:13 | 55.12002 | 13.97617 | 10436 ft | 294 kts | 292° |
| 2026-04-25 20:13 | 55.12608 | 13.94205 | 10191 ft | 293 kts | 292° |
| 2026-04-25 20:14 | 55.13212 | 13.90799 | 9938 ft | 293 kts | 292° |
| 2026-04-25 20:14 | 55.13813 | 13.87406 | 9677 ft | 292 kts | 292° |
| 2026-04-25 20:14 | 55.14404 | 13.84060 | 9356 ft | 282 kts | 292° |
| 2026-04-25 20:14 | 55.14958 | 13.80907 | 9073 ft | 263 kts | 293° |
| 2026-04-25 20:15 | 55.15490 | 13.77881 | 8816 ft | 260 kts | 293° |
| 2026-04-25 20:15 | 55.16020 | 13.74881 | 8537 ft | 257 kts | 293° |
| 2026-04-25 20:15 | 55.16549 | 13.71898 | 8279 ft | 257 kts | 293° |
| 2026-04-25 20:15 | 55.17077 | 13.68916 | 8013 ft | 257 kts | 293° |
| 2026-04-25 20:16 | 55.17604 | 13.65927 | 7755 ft | 257 kts | 293° |
| 2026-04-25 20:16 | 55.18122 | 13.62977 | 7494 ft | 257 kts | 293° |
| 2026-04-25 20:16 | 55.18643 | 13.59987 | 7234 ft | 257 kts | 292° |
| 2026-04-25 20:16 | 55.19163 | 13.57001 | 6977 ft | 257 kts | 292° |
| 2026-04-25 20:17 | 55.19684 | 13.54010 | 6718 ft | 257 kts | 292° |
| 2026-04-25 20:17 | 55.20204 | 13.51018 | 6474 ft | 257 kts | 292° |
| 2026-04-25 20:17 | 55.20724 | 13.48026 | 6211 ft | 257 kts | 293° |
| 2026-04-25 20:17 | 55.21243 | 13.45025 | 5934 ft | 256 kts | 293° |
| 2026-04-25 20:18 | 55.21757 | 13.42046 | 5669 ft | 256 kts | 292° |
| 2026-04-25 20:18 | 55.22270 | 13.39063 | 5417 ft | 255 kts | 292° |
| 2026-04-25 20:18 | 55.22782 | 13.36091 | 5153 ft | 254 kts | 293° |
| 2026-04-25 20:18 | 55.23294 | 13.33129 | 5010 ft | 254 kts | 293° |
| 2026-04-25 20:19 | 55.23804 | 13.30172 | 5006 ft | 254 kts | 292° |
| 2026-04-25 20:19 | 55.24313 | 13.27208 | 5015 ft | 255 kts | 292° |
| 2026-04-25 20:19 | 55.24820 | 13.24233 | 5017 ft | 255 kts | 292° |
| 2026-04-25 20:19 | 55.25327 | 13.21253 | 5012 ft | 254 kts | 292° |
| 2026-04-25 20:20 | 55.25832 | 13.18283 | 5027 ft | 254 kts | 292° |
| 2026-04-25 20:20 | 55.26339 | 13.15317 | 5023 ft | 254 kts | 292° |
| 2026-04-25 20:20 | 55.26847 | 13.12349 | 5019 ft | 254 kts | 292° |
| 2026-04-25 20:20 | 55.27354 | 13.09379 | 5025 ft | 255 kts | 292° |
| 2026-04-25 20:21 | 55.27861 | 13.06397 | 5031 ft | 255 kts | 292° |
| 2026-04-25 20:21 | 55.28367 | 13.03413 | 5039 ft | 255 kts | 292° |
| 2026-04-25 20:21 | 55.28864 | 13.00468 | 5034 ft | 255 kts | 292° |
| 2026-04-25 20:21 | 55.29365 | 12.97482 | 5034 ft | 254 kts | 292° |
| 2026-04-25 20:22 | 55.29864 | 12.94508 | 5042 ft | 254 kts | 292° |
| 2026-04-25 20:22 | 55.30032 | 12.93503 | 5028 ft | 254 kts | 292° |
| 2026-04-25 20:22 | 55.30863 | 12.88552 | 5036 ft | 255 kts | 292° |
| 2026-04-25 20:22 | 55.31363 | 12.85565 | 5036 ft | 255 kts | 292° |
| 2026-04-25 20:23 | 55.31861 | 12.82582 | 5025 ft | 255 kts | 292° |
| 2026-04-25 20:23 | 55.32362 | 12.79597 | 5009 ft | 254 kts | 292° |
| 2026-04-25 20:23 | 55.32859 | 12.76625 | 5030 ft | 252 kts | 292° |
| 2026-04-25 20:23 | 55.33350 | 12.73677 | 4851 ft | 250 kts | 292° |
| 2026-04-25 20:24 | 55.33835 | 12.70743 | 4502 ft | 249 kts | 292° |
| 2026-04-25 20:24 | 55.34317 | 12.67832 | 4146 ft | 248 kts | 292° |
| 2026-04-25 20:24 | 55.34793 | 12.64929 | 3807 ft | 246 kts | 292° |
| 2026-04-25 20:24 | 55.35255 | 12.62071 | 3463 ft | 245 kts | 292° |
| 2026-04-25 20:25 | 55.35779 | 12.59245 | 3116 ft | 239 kts | 301° |
| 2026-04-25 20:25 | 55.36544 | 12.56679 | 2781 ft | 235 kts | 305° |
| 2026-04-25 20:25 | 55.37334 | 12.54232 | 2649 ft | 225 kts | 305° |
| 2026-04-25 20:25 | 55.38088 | 12.51890 | 2510 ft | 216 kts | 305° |
| 2026-04-25 20:26 | 55.38810 | 12.49629 | 2236 ft | 210 kts | 305° |
| 2026-04-25 20:26 | 55.39546 | 12.47424 | 2052 ft | 207 kts | 311° |
| 2026-04-25 20:26 | 55.40659 | 12.45990 | 2042 ft | 195 kts | 343° |
| 2026-04-25 20:26 | 55.41960 | 12.45537 | 2051 ft | 187 kts | 346° |
| 2026-04-25 20:27 | 55.43240 | 12.45357 | 2044 ft | 187 kts | 7° |
| 2026-04-25 20:27 | 55.44485 | 12.46002 | 2051 ft | 186 kts | 14° |
| 2026-04-25 20:27 | 55.45694 | 12.46766 | 2051 ft | 183 kts | 15° |
| 2026-04-25 20:27 | 55.46883 | 12.47537 | 2060 ft | 181 kts | 15° |
| 2026-04-25 20:28 | 55.48055 | 12.48307 | 2054 ft | 176 kts | 15° |
| 2026-04-25 20:28 | 55.49150 | 12.49051 | 2046 ft | 164 kts | 15° |
| 2026-04-25 20:28 | 55.50183 | 12.49769 | 1915 ft | 156 kts | 15° |
| 2026-04-25 20:28 | 55.51188 | 12.50480 | 1603 ft | 155 kts | 15° |
| 2026-04-25 20:29 | 55.52193 | 12.51194 | 1556 ft | 156 kts | 15° |
| 2026-04-25 20:29 | 55.53202 | 12.51895 | 1559 ft | 154 kts | 15° |
| 2026-04-25 20:29 | 55.54146 | 12.52587 | 1516 ft | 142 kts | 19° |
| 2026-04-25 20:29 | 55.54906 | 12.53729 | 1251 ft | 143 kts | 32° |
| 2026-04-25 20:30 | 55.55654 | 12.54872 | 1017 ft | 142 kts | 32° |
| 2026-04-25 20:30 | 55.56406 | 12.56021 | 804 ft | 143 kts | 33° |
| 2026-04-25 20:30 | 55.57146 | 12.57159 | 604 ft | 140 kts | 33° |
| 2026-04-25 20:30 | 55.57893 | 12.58299 | 413 ft | 141 kts | 35° |
| 2026-04-25 20:31 | 55.58627 | 12.59452 | 225 ft | 141 kts | 37° |
| 2026-04-25 20:31 | 55.59361 | 12.60579 | 49 ft | 138 kts | 36° |
| 2026-04-25 20:31 | 55.60024 | 12.61570 | 19 ft | 103 kts | 42° |
| 2026-04-25 20:31 | 55.60449 | 12.62229 | 20 ft | 71 kts | 41° |
| 2026-04-25 20:32 | 55.60705 | 12.62634 | 20 ft | 30 kts | 41° |
| 2026-04-25 20:32 | 55.60897 | 12.62839 | 21 ft | 33 kts | 21° |
| 2026-04-25 20:32 | 55.61097 | 12.62915 | 17 ft | 28 kts | 20° |
| 2026-04-25 20:32 | 55.61216 | 12.63062 | 18 ft | 20 kts | 41° |
| 2026-04-25 20:33 | 55.61318 | 12.63221 | 18 ft | 17 kts | 41° |
| 2026-04-25 20:33 | 55.61408 | 12.63357 | 17 ft | 18 kts | 43° |
| 2026-04-25 20:33 | 55.61498 | 12.63499 | 17 ft | 15 kts | 40° |
| 2026-04-25 20:33 | 55.61525 | 12.63541 | 19 ft | 17 kts | 42° |
| 2026-04-25 20:34 | 55.61670 | 12.63763 | 19 ft | 17 kts | 40° |
| 2026-04-25 20:34 | 55.61756 | 12.63897 | 19 ft | 16 kts | 43° |
| 2026-04-25 20:34 | 55.61844 | 12.64023 | 19 ft | 16 kts | 36° |
| 2026-04-25 20:34 | 55.61946 | 12.64132 | 17 ft | 20 kts | 27° |
| 2026-04-25 20:35 | 55.62084 | 12.64248 | 18 ft | 20 kts | 25° |
| 2026-04-25 20:35 | 55.62199 | 12.64347 | 15 ft | 18 kts | 26° |
| 2026-04-25 20:35 | 55.62319 | 12.64415 | 17 ft | 18 kts | 13° |
| 2026-04-25 20:35 | 55.62438 | 12.64473 | 17 ft | 18 kts | 16° |
| 2026-04-25 20:36 | 55.62522 | 12.64404 | 17 ft | 14 kts | 307° |
| 2026-04-25 20:36 | 55.62575 | 12.64258 | 17 ft | 14 kts | 302° |
| 2026-04-25 20:36 | 55.62630 | 12.64113 | 18 ft | 14 kts | 302° |
| 2026-04-25 20:36 | 55.62684 | 12.63964 | 18 ft | 14 kts | 303° |
| 2026-04-25 20:37 | 55.62752 | 12.63938 | 17 ft | 11 kts | 26° |
| 2026-04-25 20:37 | 55.62819 | 12.63935 | 17 ft | 10 kts | 323° |
| 2026-04-25 20:37 | 55.62838 | 12.63869 | 17 ft | 3 kts | 296° |
| 2026-04-25 20:37 | 55.62852 | 12.63861 | 17 ft | 2 kts | 357° |
| 2026-04-25 20:38 | 55.62864 | 12.63864 | 17 ft | 2 kts | 8° |
| 2026-04-25 20:38 | 55.62876 | 12.63867 | 17 ft | 2 kts | 8° |
| 2026-04-25 20:38 | 55.62882 | 12.63869 | 17 ft | 0 kts | 9° |